Time;durP1;ratioP1;P1;durP2;ratioP2;P2;SDS_P1;SDS_P2;PMS_P1;PMS_P2;Temp;Humidity;BMP_temperature;BMP_pressure;BME280_temperature;BME280_humidity;BME280_pressure;Samples;Min_cycle;Max_cycle;Signal;HPM_P1;HPM_P2
2023/10/04 00:00:22;;;;;;;19.98;10.13;;;;;;;;;;4823718;29;20504;-81
2023/10/04 00:03:09;;;;;;;17.85;9.60;;;;;;;;;;4827485;29;20385;-78
2023/10/04 00:05:54;;;;;;;17.52;9.65;;;;;;;;;;4830179;29;20820;-79
2023/10/04 00:08:40;;;;;;;16.95;9.25;;;;;;;;;;4829629;29;20466;-79
2023/10/04 00:11:26;;;;;;;17.30;9.63;;;;;;;;;;4830736;29;20063;-80
2023/10/04 00:14:11;;;;;;;18.02;9.88;;;;;;;;;;4824200;29;20041;-80
2023/10/04 00:16:59;;;;;;;15.90;9.55;;;;;;;;;;4830584;29;20053;-80
2023/10/04 00:19:44;;;;;;;17.80;9.32;;;;;;;;;;4817377;29;20050;-79
2023/10/04 00:22:30;;;;;;;18.52;9.07;;;;;;;;;;4832295;29;20054;-79
2023/10/04 00:25:23;;;;;;;18.35;10.45;;;;;;;;;;4824768;29;20477;-81
2023/10/04 00:28:09;;;;;;;21.48;9.65;;;;;;;;;;4831266;29;20055;-79
2023/10/04 00:30:55;;;;;;;17.23;9.50;;;;;;;;;;4825001;29;20390;-78
2023/10/04 00:33:40;;;;;;;19.50;10.88;;;;;;;;;;4824331;29;20045;-81
2023/10/04 00:36:26;;;;;;;18.33;10.30;;;;;;;;;;4826009;29;20050;-79
2023/10/04 00:39:13;;;;;;;14.93;9.00;;;;;;;;;;4826554;29;20053;-80
2023/10/04 00:41:59;;;;;;;16.52;9.48;;;;;;;;;;4824441;29;20402;-81
2023/10/04 00:44:45;;;;;;;20.08;10.45;;;;;;;;;;4816663;29;20057;-77
2023/10/04 00:47:31;;;;;;;19.02;9.63;;;;;;;;;;4816456;29;20054;-80
2023/10/04 00:50:25;;;;;;;18.48;9.35;;;;;;;;;;4824828;29;20041;-79
2023/10/04 00:53:14;;;;;;;19.90;11.13;;;;;;;;;;4829861;29;20054;-79
2023/10/04 00:56:00;;;;;;;18.58;10.15;;;;;;;;;;4816006;29;20486;-82
2023/10/04 00:58:46;;;;;;;20.73;10.43;;;;;;;;;;4810038;29;20045;-81
2023/10/04 01:01:31;;;;;;;19.25;10.15;;;;;;;;;;4824119;29;20045;-79
2023/10/04 01:04:17;;;;;;;19.15;10.27;;;;;;;;;;4824148;29;20391;-80
2023/10/04 01:07:04;;;;;;;19.70;10.65;;;;;;;;;;4810060;29;20045;-80
2023/10/04 01:09:50;;;;;;;24.88;10.57;;;;;;;;;;4815043;29;20053;-78
2023/10/04 01:12:36;;;;;;;37.45;13.15;;;;;;;;;;4823410;29;20398;-80
2023/10/04 01:18:12;;;;;;;29.67;12.52;;;;;;;;;;4825401;29;20053;-79
2023/10/04 01:20:57;;;;;;;34.42;11.90;;;;;;;;;;4819267;29;20750;-79
2023/10/04 01:23:45;;;;;;;34.20;12.43;;;;;;;;;;4833090;29;20053;-80
2023/10/04 01:26:31;;;;;;;25.02;11.40;;;;;;;;;;4833812;29;20053;-80
2023/10/04 01:29:18;;;;;;;27.20;10.75;;;;;;;;;;4827353;29;20049;-78
2023/10/04 01:32:05;;;;;;;25.23;11.20;;;;;;;;;;4819830;29;20413;-79
2023/10/04 01:34:50;;;;;;;19.42;9.25;;;;;;;;;;4833490;29;20053;-80
2023/10/04 01:37:39;;;;;;;16.98;9.73;;;;;;;;;;4826895;29;20053;-81
2023/10/04 01:40:32;;;;;;;22.15;9.45;;;;;;;;;;4832792;29;20391;-79
2023/10/04 01:43:17;;;;;;;22.98;10.13;;;;;;;;;;4826605;29;20497;-81
2023/10/04 01:46:03;;;;;;;18.70;11.75;;;;;;;;;;4832846;29;20405;-78
2023/10/04 01:48:51;;;;;;;46.17;25.33;;;;;;;;;;4819512;29;20053;-79
2023/10/04 01:51:41;;;;;;;35.25;19.77;;;;;;;;;;4819258;29;20414;-80
2023/10/04 01:54:26;;;;;;;33.38;17.52;;;;;;;;;;4826500;29;20057;-81
2023/10/04 01:57:12;;;;;;;24.60;14.52;;;;;;;;;;4818961;29;20389;-80
2023/10/04 01:59:57;;;;;;;21.65;11.82;;;;;;;;;;4818913;29;20045;-78
2023/10/04 02:02:44;;;;;;;22.92;11.95;;;;;;;;;;4826568;29;20053;-80
2023/10/04 02:05:37;;;;;;;19.02;10.18;;;;;;;;;;4826248;29;20474;-80
2023/10/04 02:08:22;;;;;;;15.45;8.57;;;;;;;;;;4832295;29;20347;-77
2023/10/04 02:11:08;;;;;;;14.93;8.95;;;;;;;;;;4819645;29;20050;-81
2023/10/04 02:13:55;;;;;;;17.90;8.80;;;;;;;;;;4826986;29;20630;-81
2023/10/04 02:16:42;;;;;;;17.77;8.60;;;;;;;;;;4818367;29;20041;-80
2023/10/04 02:19:27;;;;;;;18.95;9.02;;;;;;;;;;4825704;29;20406;-81
2023/10/04 02:22:13;;;;;;;15.93;8.80;;;;;;;;;;4818545;29;20049;-80
2023/10/04 02:24:58;;;;;;;20.42;9.15;;;;;;;;;;4825913;29;20771;-82
2023/10/04 02:27:44;;;;;;;15.05;8.50;;;;;;;;;;4826174;29;20219;-80
2023/10/04 02:30:30;;;;;;;17.55;9.18;;;;;;;;;;4831502;29;20425;-82
2023/10/04 02:33:18;;;;;;;16.23;8.05;;;;;;;;;;4825589;29;20486;-80
2023/10/04 02:36:07;;;;;;;24.33;10.43;;;;;;;;;;4817427;29;20050;-81
2023/10/04 02:38:53;;;;;;;20.63;9.18;;;;;;;;;;4825519;29;20045;-81
2023/10/04 02:41:40;;;;;;;17.33;9.45;;;;;;;;;;4831596;29;20486;-82
2023/10/04 02:44:25;;;;;;;18.45;9.13;;;;;;;;;;4817515;29;20053;-79
2023/10/04 02:47:13;;;;;;;19.63;9.05;;;;;;;;;;4825290;29;20474;-79
2023/10/04 02:49:58;;;;;;;17.73;8.07;;;;;;;;;;4818122;29;20046;-80
2023/10/04 02:52:44;;;;;;;21.35;8.80;;;;;;;;;;4817593;29;20486;-80
2023/10/04 02:55:31;;;;;;;15.55;8.07;;;;;;;;;;4817692;29;20501;-79
2023/10/04 02:58:17;;;;;;;18.13;8.40;;;;;;;;;;4817896;29;20370;-80
2023/10/04 03:01:05;;;;;;;17.80;8.45;;;;;;;;;;4824839;29;20046;-79
2023/10/04 03:03:53;;;;;;;15.88;8.43;;;;;;;;;;4824690;29;20432;-81
2023/10/04 03:06:42;;;;;;;15.25;8.55;;;;;;;;;;4817389;29;20505;-80
2023/10/04 03:09:28;;;;;;;14.18;9.07;;;;;;;;;;4818654;29;20050;-80
2023/10/04 03:12:15;;;;;;;14.95;8.60;;;;;;;;;;4833176;29;20050;-79
2023/10/04 03:15:00;;;;;;;16.63;8.52;;;;;;;;;;4818064;29;20045;-79
2023/10/04 03:17:46;;;;;;;16.58;9.13;;;;;;;;;;4817545;29;20054;-80
2023/10/04 03:20:32;;;;;;;16.58;8.52;;;;;;;;;;4817576;29;20049;-80
2023/10/04 03:23:23;;;;;;;19.90;8.38;;;;;;;;;;4817986;29;20402;-79
2023/10/04 03:26:12;;;;;;;17.25;8.73;;;;;;;;;;4818226;29;20061;-80
2023/10/04 03:28:58;;;;;;;16.08;8.45;;;;;;;;;;4818413;29;20045;-80
2023/10/04 03:31:49;;;;;;;17.27;9.57;;;;;;;;;;4818988;29;20469;-78
2023/10/04 03:34:35;;;;;;;19.38;8.55;;;;;;;;;;4825686;29;20049;-81
2023/10/04 03:37:29;;;;;;;20.23;9.32;;;;;;;;;;4816465;29;20045;-80
2023/10/04 03:40:17;;;;;;;22.83;10.57;;;;;;;;;;4816858;29;20054;-81
2023/10/04 03:43:07;;;;;;;21.63;9.05;;;;;;;;;;4816252;29;20470;-80
2023/10/04 03:45:54;;;;;;;19.95;9.38;;;;;;;;;;4816667;29;20433;-80
2023/10/04 03:48:41;;;;;;;16.17;9.60;;;;;;;;;;4817213;29;20061;-80
2023/10/04 03:51:28;;;;;;;14.98;8.55;;;;;;;;;;4817179;29;20065;-79
2023/10/04 03:54:16;;;;;;;15.00;8.80;;;;;;;;;;4816666;29;20049;-79
2023/10/04 03:57:06;;;;;;;24.75;13.68;;;;;;;;;;4816161;29;20430;-80
2023/10/04 03:59:52;;;;;;;40.72;22.38;;;;;;;;;;4817044;29;20470;-83
2023/10/04 04:02:41;;;;;;;25.15;14.43;;;;;;;;;;4814742;29;20398;-80
2023/10/04 04:05:28;;;;;;;23.48;13.40;;;;;;;;;;4824381;29;20058;-81
2023/10/04 04:08:13;;;;;;;18.90;11.70;;;;;;;;;;4816227;29;20401;-80
2023/10/04 04:10:59;;;;;;;19.33;11.60;;;;;;;;;;4815890;29;20042;-81
2023/10/04 04:13:45;;;;;;;21.05;9.68;;;;;;;;;;4816069;29;20046;-79
2023/10/04 04:16:30;;;;;;;24.27;11.77;;;;;;;;;;4816257;29;20049;-82
2023/10/04 04:19:19;;;;;;;19.20;9.52;;;;;;;;;;4830455;29;20049;-81
2023/10/04 04:22:05;;;;;;;17.77;8.82;;;;;;;;;;4810894;29;20046;-78
2023/10/04 04:24:50;;;;;;;16.20;9.55;;;;;;;;;;4815918;29;20405;-80
2023/10/04 04:27:36;;;;;;;16.10;9.60;;;;;;;;;;4816566;29;20673;-82
2023/10/04 04:30:27;;;;;;;16.00;9.55;;;;;;;;;;4817419;29;20049;-78
2023/10/04 04:33:16;;;;;;;38.60;16.30;;;;;;;;;;4816681;29;20045;-78
2023/10/04 04:36:12;;;;;;;96.38;42.50;;;;;;;;;;4816571;29;20053;-80
2023/10/04 04:38:57;;;;;;;117.17;47.63;;;;;;;;;;4816206;29;20057;-78
2023/10/04 04:41:51;;;;;;;32.70;16.30;;;;;;;;;;4816685;29;20057;-80
2023/10/04 04:44:42;;;;;;;23.90;11.05;;;;;;;;;;4816282;29;20401;-81
2023/10/04 04:47:27;;;;;;;20.77;11.07;;;;;;;;;;4813860;29;20497;-79
2023/10/04 04:50:15;;;;;;;17.75;9.82;;;;;;;;;;4815439;29;20054;-79
2023/10/04 04:53:10;;;;;;;22.80;10.10;;;;;;;;;;4817007;29;20054;-80
2023/10/04 04:55:56;;;;;;;16.80;9.90;;;;;;;;;;4813352;29;20046;-78
2023/10/04 04:58:49;;;;;;;21.05;9.95;;;;;;;;;;4819566;29;20466;-80
2023/10/04 05:01:38;;;;;;;19.55;10.32;;;;;;;;;;4827165;29;20045;-79
2023/10/04 05:04:23;;;;;;;23.15;11.10;;;;;;;;;;4813822;29;20050;-82
2023/10/04 05:07:12;;;;;;;22.40;10.07;;;;;;;;;;4806274;29;20049;-81
2023/10/04 05:09:56;;;;;;;17.20;10.05;;;;;;;;;;4833509;29;20046;-79
2023/10/04 05:12:41;;;;;;;19.73;9.82;;;;;;;;;;4827328;29;20049;-80
2023/10/04 05:15:32;;;;;;;23.65;10.40;;;;;;;;;;4832953;29;20045;-80
2023/10/04 05:18:18;;;;;;;21.58;8.75;;;;;;;;;;4827314;29;20053;-79
2023/10/04 05:21:04;;;;;;;15.30;7.72;;;;;;;;;;4834951;29;20050;-79
2023/10/04 05:23:55;;;;;;;23.13;8.88;;;;;;;;;;4828133;29;20486;-81
2023/10/04 05:26:40;;;;;;;15.35;8.35;;;;;;;;;;4827325;29;20057;-80
2023/10/04 05:29:26;;;;;;;18.70;9.57;;;;;;;;;;4833169;29;20493;-83
2023/10/04 05:32:11;;;;;;;23.00;9.93;;;;;;;;;;4832897;29;20057;-79
2023/10/04 05:34:57;;;;;;;19.42;9.85;;;;;;;;;;4831719;29;20045;-79
2023/10/04 05:37:45;;;;;;;24.65;12.15;;;;;;;;;;4832502;29;20041;-80
2023/10/04 05:40:31;;;;;;;25.13;11.77;;;;;;;;;;4832239;29;20049;-80
2023/10/04 05:43:18;;;;;;;20.23;10.98;;;;;;;;;;4831563;29;20485;-79
2023/10/04 05:46:06;;;;;;;23.38;10.43;;;;;;;;;;4831922;29;20556;-80
2023/10/04 05:48:52;;;;;;;27.13;12.32;;;;;;;;;;4831597;29;20057;-81
2023/10/04 05:51:37;;;;;;;56.67;19.38;;;;;;;;;;4832509;29;20398;-81
2023/10/04 05:54:23;;;;;;;29.27;13.23;;;;;;;;;;4826821;29;20468;-81
2023/10/04 05:57:09;;;;;;;25.77;8.73;;;;;;;;;;4829793;29;20489;-81
2023/10/04 05:59:55;;;;;;;20.58;9.02;;;;;;;;;;4831488;29;20541;-83
2023/10/04 06:02:43;;;;;;;17.77;8.45;;;;;;;;;;4829539;29;20675;-81
2023/10/04 06:05:28;;;;;;;18.80;9.63;;;;;;;;;;4825143;29;20042;-80
2023/10/04 06:08:23;;;;;;;27.45;10.60;;;;;;;;;;4832012;29;20057;-81
2023/10/04 06:11:09;;;;;;;;;;;;;;;;;;4831992;29;20046;-82
2023/10/04 06:13:55;;;;;;;26.58;10.98;;;;;;;;;;4830220;29;19924;-80
2023/10/04 06:16:41;;;;;;;27.35;14.85;;;;;;;;;;4830942;29;20058;-80
2023/10/04 06:19:28;;;;;;;42.72;21.27;;;;;;;;;;4831827;29;20401;-82
2023/10/04 06:22:13;;;;;;;32.65;17.95;;;;;;;;;;4831579;29;21250;-81
2023/10/04 06:24:58;;;;;;;20.73;11.38;;;;;;;;;;4831351;29;20042;-81
2023/10/04 06:27:44;;;;;;;21.75;11.60;;;;;;;;;;4831279;29;20049;-80
2023/10/04 06:30:32;;;;;;;21.08;10.65;;;;;;;;;;4824757;29;20402;-80
2023/10/04 06:33:18;;;;;;;20.17;11.05;;;;;;;;;;4831244;29;20398;-80
2023/10/04 06:36:03;;;;;;;20.52;10.27;;;;;;;;;;4830426;29;20410;-80
2023/10/04 06:38:49;;;;;;;21.75;9.93;;;;;;;;;;4825078;29;20466;-81
2023/10/04 06:41:35;;;;;;;27.88;9.68;;;;;;;;;;4831362;29;20482;-80
2023/10/04 06:44:22;;;;;;;22.15;10.93;;;;;;;;;;4830952;29;20053;-81
2023/10/04 06:47:10;;;;;;;29.30;11.52;;;;;;;;;;4831168;29;20057;-79
2023/10/04 06:49:58;;;;;;;21.52;12.18;;;;;;;;;;4829969;29;20054;-81
2023/10/04 06:52:44;;;;;;;18.40;10.07;;;;;;;;;;4830145;29;20050;-78
2023/10/04 06:55:31;;;;;;;17.85;9.73;;;;;;;;;;4829405;29;20045;-80
2023/10/04 06:58:16;;;;;;;19.75;10.85;;;;;;;;;;4823514;29;20050;-79
2023/10/04 07:01:02;;;;;;;22.17;11.48;;;;;;;;;;4823129;29;20045;-81
2023/10/04 07:03:47;;;;;;;21.42;10.30;;;;;;;;;;4822711;29;20050;-80
2023/10/04 07:06:33;;;;;;;20.73;10.95;;;;;;;;;;4822737;29;20057;-80
2023/10/04 07:09:18;;;;;;;16.80;10.30;;;;;;;;;;4822726;29;20406;-82
2023/10/04 07:12:04;;;;;;;20.42;11.15;;;;;;;;;;4824149;29;20409;-81
2023/10/04 07:14:50;;;;;;;24.55;10.38;;;;;;;;;;4822727;29;20037;-81
2023/10/04 07:17:35;;;;;;;18.35;10.30;;;;;;;;;;4823163;29;20482;-80
2023/10/04 07:20:24;;;;;;;22.95;11.45;;;;;;;;;;4825290;29;20394;-79
2023/10/04 07:23:10;;;;;;;21.77;11.95;;;;;;;;;;4824188;29;20049;-78
2023/10/04 07:25:55;;;;;;;21.48;12.30;;;;;;;;;;4824391;29;20390;-82
2023/10/04 07:28:41;;;;;;;25.55;11.55;;;;;;;;;;4822903;29;20050;-79
2023/10/04 07:31:27;;;;;;;21.52;10.68;;;;;;;;;;4823710;29;20426;-79
2023/10/04 07:34:12;;;;;;;18.90;11.38;;;;;;;;;;4822840;29;20049;-81
2023/10/04 07:36:57;;;;;;;22.77;12.30;;;;;;;;;;4823456;29;20054;-78
2023/10/04 07:39:43;;;;;;;29.33;12.10;;;;;;;;;;4823021;29;20042;-78
2023/10/04 07:42:30;;;;;;;20.63;11.27;;;;;;;;;;4822992;29;20046;-79
2023/10/04 07:45:18;;;;;;;21.73;10.40;;;;;;;;;;4823724;29;20057;-80
2023/10/04 07:48:03;;;;;;;25.92;11.27;;;;;;;;;;4823154;29;20494;-80
2023/10/04 07:50:48;;;;;;;26.35;12.57;;;;;;;;;;4823811;29;20410;-79
2023/10/04 07:53:35;;;;;;;19.58;11.82;;;;;;;;;;4823171;29;20471;-81
2023/10/04 07:56:21;;;;;;;24.15;11.52;;;;;;;;;;4822903;29;20050;-82
2023/10/04 07:59:06;;;;;;;20.88;10.77;;;;;;;;;;4810090;29;20054;-81
2023/10/04 08:01:52;;;;;;;23.23;11.15;;;;;;;;;;4823007;29;20421;-81
2023/10/04 08:04:39;;;;;;;21.00;10.55;;;;;;;;;;4822443;29;20414;-79
2023/10/04 08:07:24;;;;;;;31.73;11.15;;;;;;;;;;4823471;29;20045;-82
2023/10/04 08:10:09;;;;;;;19.63;10.52;;;;;;;;;;4822830;29;20050;-83
2023/10/04 08:12:59;;;;;;;26.08;12.13;;;;;;;;;;4823654;29;20050;-81
2023/10/04 08:15:46;;;;;;;24.98;12.70;;;;;;;;;;4822735;29;20467;-81
2023/10/04 08:18:31;;;;;;;21.73;11.65;;;;;;;;;;4810226;29;20058;-80
2023/10/04 08:21:17;;;;;;;25.17;9.93;;;;;;;;;;4823320;29;20054;-79
2023/10/04 08:24:02;;;;;;;28.10;9.98;;;;;;;;;;4822329;29;20050;-81
2023/10/04 08:26:49;;;;;;;20.10;9.40;;;;;;;;;;4809298;29;20049;-81
2023/10/04 08:29:35;;;;;;;31.88;10.15;;;;;;;;;;4819275;29;20050;-80
2023/10/04 08:32:22;;;;;;;23.33;10.27;;;;;;;;;;4827427;29;20458;-80
2023/10/04 08:35:24;;;;;;;25.40;9.10;;;;;;;;;;4827386;29;20050;-79
2023/10/04 08:38:09;;;;;;;18.50;8.98;;;;;;;;;;4825700;29;20053;-82
2023/10/04 08:40:55;;;;;;;18.85;9.43;;;;;;;;;;4826268;29;20412;-81
2023/10/04 08:43:40;;;;;;;23.67;10.80;;;;;;;;;;4826112;29;20053;-84
2023/10/04 08:46:26;;;;;;;25.83;11.23;;;;;;;;;;4826061;29;20053;-81
2023/10/04 08:49:15;;;;;;;21.65;9.13;;;;;;;;;;4812106;29;20494;-81
2023/10/04 08:52:09;;;;;;;21.27;9.77;;;;;;;;;;4818195;29;20414;-80
2023/10/04 08:55:05;;;;;;;17.15;9.50;;;;;;;;;;4827042;29;20050;-82
2023/10/04 08:57:51;;;;;;;19.23;9.90;;;;;;;;;;4825839;29;20374;-81
2023/10/04 09:00:39;;;;;;;19.20;8.52;;;;;;;;;;4826792;29;20046;-84
2023/10/04 09:03:26;;;;;;;22.42;8.98;;;;;;;;;;4826123;29;20057;-82
2023/10/04 09:06:16;;;;;;;20.58;9.30;;;;;;;;;;4825961;29;20054;-80
2023/10/04 09:09:05;;;;;;;19.70;8.80;;;;;;;;;;4826623;29;20058;-80
2023/10/04 09:11:50;;;;;;;18.02;9.45;;;;;;;;;;4826419;29;20050;-80
2023/10/04 09:14:40;;;;;;;15.75;8.55;;;;;;;;;;4826991;29;20046;-79
2023/10/04 09:17:26;;;;;;;18.50;9.02;;;;;;;;;;4826939;29;20469;-81
2023/10/04 09:20:11;;;;;;;17.85;9.13;;;;;;;;;;4826764;29;20050;-81
2023/10/04 09:22:59;;;;;;;20.20;8.88;;;;;;;;;;4826595;29;20042;-80
2023/10/04 09:25:46;;;;;;;20.42;8.07;;;;;;;;;;4825537;29;20057;-80
2023/10/04 09:28:40;;;;;;;16.77;8.05;;;;;;;;;;4825743;29;20066;-79
2023/10/04 09:31:26;;;;;;;17.60;8.20;;;;;;;;;;4826016;29;20454;-80
2023/10/04 09:34:13;;;;;;;15.13;7.65;;;;;;;;;;4825373;29;20490;-85
2023/10/04 09:36:59;;;;;;;13.52;7.78;;;;;;;;;;4817624;29;20046;-82
2023/10/04 09:39:44;;;;;;;16.13;7.75;;;;;;;;;;4825511;29;20062;-83
2023/10/04 09:42:30;;;;;;;17.13;7.60;;;;;;;;;;4826227;29;20386;-83
2023/10/04 09:45:15;;;;;;;15.32;6.70;;;;;;;;;;4826155;29;20057;-81
2023/10/04 09:48:03;;;;;;;12.02;6.20;;;;;;;;;;4818929;29;20058;-81
2023/10/04 09:50:48;;;;;;;12.50;6.10;;;;;;;;;;4827854;29;20046;-82
2023/10/04 09:53:39;;;;;;;15.85;6.85;;;;;;;;;;4827956;29;20046;-84
2023/10/04 09:56:25;;;;;;;10.63;6.28;;;;;;;;;;4828010;29;20054;-83
2023/10/04 09:59:11;;;;;;;11.77;6.20;;;;;;;;;;4826092;29;20053;-81
2023/10/04 10:01:59;;;;;;;12.70;6.53;;;;;;;;;;4824798;29;20085;-81
2023/10/04 10:04:48;;;;;;;15.68;6.72;;;;;;;;;;4820841;29;20459;-81
2023/10/04 10:07:36;;;;;;;15.55;6.32;;;;;;;;;;4824713;29;20054;-82
2023/10/04 10:10:22;;;;;;;10.98;6.05;;;;;;;;;;4825019;29;20064;-82
2023/10/04 10:13:09;;;;;;;15.38;5.95;;;;;;;;;;4826009;29;20042;-82
2023/10/04 10:15:55;;;;;;;11.65;5.85;;;;;;;;;;4817485;29;20463;-82
2023/10/04 10:18:41;;;;;;;13.35;6.40;;;;;;;;;;4825522;29;20463;-82
2023/10/04 10:22:06;;;;;;;9.02;4.93;;;;;;;;;;4826871;29;20045;-82
2023/10/04 10:24:55;;;;;;;14.65;6.45;;;;;;;;;;4806955;29;20057;-84
2023/10/04 10:27:41;;;;;;;13.63;6.55;;;;;;;;;;4824026;29;20410;-83
2023/10/04 10:30:28;;;;;;;13.85;6.88;;;;;;;;;;4824453;29;20482;-83
2023/10/04 10:33:13;;;;;;;14.48;6.13;;;;;;;;;;4825311;29;20058;-84
2023/10/04 10:35:59;;;;;;;12.88;6.95;;;;;;;;;;4824802;29;20463;-79
2023/10/04 10:38:49;;;;;;;12.90;7.13;;;;;;;;;;4817005;29;20038;-81
2023/10/04 10:41:35;;;;;;;14.88;7.57;;;;;;;;;;4825247;29;20451;-79
2023/10/04 10:44:23;;;;;;;14.55;7.30;;;;;;;;;;4824041;29;20402;-83
2023/10/04 10:47:16;;;;;;;13.65;7.47;;;;;;;;;;4823759;29;20046;-81
2023/10/04 10:50:04;;;;;;;11.35;6.47;;;;;;;;;;4824102;29;20413;-81
2023/10/04 10:53:03;;;;;;;12.90;7.55;;;;;;;;;;4824387;29;20042;-81
2023/10/04 10:55:49;;;;;;;13.95;6.38;;;;;;;;;;4824170;29;20050;-84
2023/10/04 10:58:35;;;;;;;11.45;6.22;;;;;;;;;;4823585;29;20053;-82
2023/10/04 11:01:20;;;;;;;13.43;7.50;;;;;;;;;;4829619;29;20049;-82
2023/10/04 11:04:05;;;;;;;13.65;7.25;;;;;;;;;;4824174;29;20053;-83
2023/10/04 11:06:51;;;;;;;14.13;7.75;;;;;;;;;;4825750;29;20050;-82
2023/10/04 11:09:40;;;;;;;13.50;7.05;;;;;;;;;;4815434;29;20062;-81
2023/10/04 11:12:25;;;;;;;15.45;7.03;;;;;;;;;;4825734;29;20050;-82
2023/10/04 11:15:13;;;;;;;15.40;7.13;;;;;;;;;;4821079;29;20042;-79
2023/10/04 11:17:58;;;;;;;13.43;6.35;;;;;;;;;;4826682;29;20042;-83
2023/10/04 11:20:44;;;;;;;15.10;7.13;;;;;;;;;;4825927;29;20050;-84
2023/10/04 11:23:30;;;;;;;15.48;8.18;;;;;;;;;;4826408;29;20470;-84
2023/10/04 11:26:16;;;;;;;16.90;7.68;;;;;;;;;;4825929;29;20378;-83
2023/10/04 11:29:01;;;;;;;12.85;7.75;;;;;;;;;;4818965;29;20475;-81
2023/10/04 11:31:48;;;;;;;15.20;7.78;;;;;;;;;;4826483;29;20451;-83
2023/10/04 11:34:37;;;;;;;17.00;8.55;;;;;;;;;;4816127;29;20050;-82
2023/10/04 11:37:31;;;;;;;14.52;7.38;;;;;;;;;;4823394;29;20046;-86
2023/10/04 11:40:19;;;;;;;;;;;;;;;;;;4815815;29;20054;-84
2023/10/04 11:43:08;;;;;;;14.30;7.65;;;;;;;;;;4823726;29;19916;-82
2023/10/04 11:46:00;;;;;;;16.17;8.02;;;;;;;;;;4809827;29;20046;-80
2023/10/04 11:48:47;;;;;;;14.95;7.80;;;;;;;;;;4824628;29;20045;-83
2023/10/04 11:51:33;;;;;;;15.90;7.00;;;;;;;;;;4824098;29;20058;-81
2023/10/04 11:54:18;;;;;;;16.17;8.10;;;;;;;;;;4822735;29;20046;-83
2023/10/04 11:57:05;;;;;;;14.57;7.40;;;;;;;;;;4809198;29;20402;-82
2023/10/04 11:59:51;;;;;;;15.00;7.18;;;;;;;;;;4819291;29;20050;-87
2023/10/04 12:02:36;;;;;;;16.58;8.52;;;;;;;;;;4822758;29;20459;-83
2023/10/04 12:05:22;;;;;;;12.20;7.72;;;;;;;;;;4823282;29;20049;-82
2023/10/04 12:08:09;;;;;;;14.52;7.28;;;;;;;;;;4815494;29;20351;-80
2023/10/04 12:10:58;;;;;;;11.77;6.47;;;;;;;;;;4812224;29;20411;-81
2023/10/04 12:13:45;;;;;;;12.57;6.55;;;;;;;;;;4807939;29;20424;-81
2023/10/04 12:16:33;;;;;;;15.48;7.13;;;;;;;;;;4813792;29;20399;-83
2023/10/04 12:19:19;;;;;;;12.32;7.25;;;;;;;;;;4805432;29;20046;-78
2023/10/04 12:22:11;;;;;;;18.52;8.00;;;;;;;;;;4820792;29;20410;-84
2023/10/04 12:24:59;;;;;;;16.08;7.75;;;;;;;;;;4815541;29;20054;-84
2023/10/04 12:27:47;;;;;;;17.13;7.90;;;;;;;;;;4825786;29;20054;-83
2023/10/04 12:30:33;;;;;;;16.15;7.72;;;;;;;;;;4830876;29;20463;-80
2023/10/04 12:33:18;;;;;;;15.43;7.10;;;;;;;;;;4820543;29;20046;-82
2023/10/04 12:36:06;;;;;;;11.70;7.22;;;;;;;;;;4815294;29;20406;-83
2023/10/04 12:38:52;;;;;;;17.00;7.93;;;;;;;;;;4822444;29;20057;-81
2023/10/04 12:41:39;;;;;;;16.33;8.10;;;;;;;;;;4822678;29;20402;-82
2023/10/04 12:44:24;;;;;;;17.15;8.32;;;;;;;;;;4821417;29;20466;-83
2023/10/04 12:47:12;;;;;;;14.00;7.85;;;;;;;;;;4807908;29;20049;-83
2023/10/04 12:49:58;;;;;;;10.98;6.93;;;;;;;;;;4822810;29;20406;-81
2023/10/04 12:52:45;;;;;;;16.83;7.97;;;;;;;;;;4822706;29;20466;-83
2023/10/04 12:55:31;;;;;;;18.23;8.25;;;;;;;;;;4823308;29;20054;-82
2023/10/04 12:58:18;;;;;;;17.80;8.52;;;;;;;;;;4821170;29;20050;-83
2023/10/04 13:01:05;;;;;;;13.82;5.97;;;;;;;;;;4822463;29;20050;-84
2023/10/04 13:03:50;;;;;;;14.50;8.35;;;;;;;;;;4823999;29;20050;-82
2023/10/04 13:06:36;;;;;;;12.35;7.30;;;;;;;;;;4822973;29;20463;-82
2023/10/04 13:09:26;;;;;;;14.77;8.05;;;;;;;;;;4812506;29;20055;-80
2023/10/04 13:12:11;;;;;;;12.25;6.78;;;;;;;;;;4820794;29;20049;-80
2023/10/04 13:14:57;;;;;;;17.73;8.10;;;;;;;;;;4817072;29;20467;-82
2023/10/04 13:17:43;;;;;;;13.05;6.85;;;;;;;;;;4819690;29;20050;-82
2023/10/04 13:20:29;;;;;;;23.77;8.45;;;;;;;;;;4807566;29;20467;-82
2023/10/04 13:23:14;;;;;;;10.95;6.75;;;;;;;;;;4806672;29;20478;-81
2023/10/04 13:25:59;;;;;;;16.08;7.65;;;;;;;;;;4807684;29;20054;-82
2023/10/04 13:28:44;;;;;;;17.10;7.65;;;;;;;;;;4808494;29;20054;-82
2023/10/04 13:31:30;;;;;;;16.50;5.97;;;;;;;;;;4825280;29;20046;-80
2023/10/04 13:34:16;;;;;;;14.40;8.00;;;;;;;;;;4822742;29;20054;-83
2023/10/04 13:37:01;;;;;;;19.75;7.40;;;;;;;;;;4836320;29;20041;-83
2023/10/04 13:39:47;;;;;;;15.63;7.80;;;;;;;;;;4836683;29;20401;-81
2023/10/04 13:42:34;;;;;;;20.05;7.93;;;;;;;;;;4832670;29;20054;-84
2023/10/04 13:45:19;;;;;;;19.45;7.43;;;;;;;;;;4831728;29;20054;-82
2023/10/04 13:48:11;;;;;;;12.52;6.68;;;;;;;;;;4839436;29;20050;-81
2023/10/04 13:50:59;;;;;;;12.52;7.20;;;;;;;;;;4828846;29;20442;-85
2023/10/04 13:53:47;;;;;;;15.15;6.80;;;;;;;;;;4831853;29;20057;-85
2023/10/04 13:56:33;;;;;;;15.07;6.30;;;;;;;;;;4835746;29;20497;-82
2023/10/04 13:59:19;;;;;;;11.70;5.25;;;;;;;;;;4829501;29;20046;-85
2023/10/04 14:02:05;;;;;;;13.35;6.28;;;;;;;;;;4841603;29;20429;-82
2023/10/04 14:04:52;;;;;;;11.82;5.68;;;;;;;;;;4810869;29;20465;-83
2023/10/04 14:07:39;;;;;;;13.00;5.43;;;;;;;;;;4840544;29;20045;-87
2023/10/04 14:10:25;;;;;;;13.18;6.32;;;;;;;;;;4822963;29;20054;-83
2023/10/04 14:13:12;;;;;;;18.00;5.72;;;;;;;;;;4816025;29;20048;-83
2023/10/04 14:15:57;;;;;;;17.90;6.13;;;;;;;;;;4839976;29;20054;-80
2023/10/04 14:18:44;;;;;;;8.43;5.40;;;;;;;;;;4828127;29;20050;-82
2023/10/04 14:21:30;;;;;;;10.07;4.63;;;;;;;;;;4810065;29;20615;-82
2023/10/04 14:24:15;;;;;;;11.93;5.60;;;;;;;;;;4814747;29;20046;-83
2023/10/04 14:27:02;;;;;;;14.50;6.20;;;;;;;;;;4820251;29;20045;-84
2023/10/04 14:29:49;;;;;;;11.35;6.07;;;;;;;;;;4835719;29;20057;-84
2023/10/04 14:32:34;;;;;;;16.42;6.10;;;;;;;;;;4835576;29;20462;-84
2023/10/04 14:35:21;;;;;;;11.02;5.95;;;;;;;;;;4836243;29;20470;-87
2023/10/04 14:38:06;;;;;;;20.00;6.18;;;;;;;;;;4829700;29;20339;-85
2023/10/04 14:40:54;;;;;;;12.45;6.00;;;;;;;;;;4814514;29;20458;-86
2023/10/04 14:43:40;;;;;;;14.52;6.15;;;;;;;;;;4822312;29;20050;-84
2023/10/04 14:46:26;;;;;;;8.85;4.53;;;;;;;;;;4814961;29;20398;-84
2023/10/04 14:49:12;;;;;;;13.55;5.28;;;;;;;;;;4813327;29;20054;-84
2023/10/04 14:51:57;;;;;;;15.73;5.80;;;;;;;;;;4828828;29;20038;-84
2023/10/04 14:54:43;;;;;;;10.32;5.30;;;;;;;;;;4829750;29;20046;-84
2023/10/04 14:57:29;;;;;;;17.73;5.43;;;;;;;;;;4826996;29;20406;-83
2023/10/04 15:00:20;;;;;;;13.65;4.97;;;;;;;;;;4819243;29;20405;-83
2023/10/04 15:03:05;;;;;;;12.35;5.45;;;;;;;;;;4833749;29;20478;-83
2023/10/04 15:05:51;;;;;;;12.07;5.50;;;;;;;;;;4814008;29;20053;-83
2023/10/04 15:08:36;;;;;;;13.93;5.00;;;;;;;;;;4826333;29;20422;-82
2023/10/04 15:11:29;;;;;;;14.07;5.80;;;;;;;;;;4820113;29;20050;-83
2023/10/04 15:14:14;;;;;;;20.08;5.50;;;;;;;;;;4819888;29;20045;-82
2023/10/04 15:16:59;;;;;;;17.98;5.72;;;;;;;;;;4818617;29;20049;-84
2023/10/04 15:19:46;;;;;;;15.63;5.93;;;;;;;;;;4826454;29;20057;-83
2023/10/04 15:22:39;;;;;;;10.38;5.18;;;;;;;;;;4824275;29;20049;-84
2023/10/04 15:25:25;;;;;;;13.90;5.22;;;;;;;;;;4826001;29;20394;-85
2023/10/04 15:28:16;;;;;;;14.50;6.25;;;;;;;;;;4825495;29;20050;-85
2023/10/04 15:31:01;;;;;;;13.57;5.25;;;;;;;;;;4816214;29;20398;-85
2023/10/04 15:33:49;;;;;;;14.15;5.35;;;;;;;;;;4817092;29;20049;-85
2023/10/04 15:36:34;;;;;;;15.02;5.18;;;;;;;;;;4816872;29;20046;-85
2023/10/04 15:39:32;;;;;;;10.52;4.95;;;;;;;;;;4803073;29;20058;-85
2023/10/04 15:42:19;;;;;;;15.80;4.85;;;;;;;;;;4810572;29;20478;-84
2023/10/04 15:45:06;;;;;;;16.23;4.50;;;;;;;;;;4816448;29;20486;-84
2023/10/04 15:47:52;;;;;;;16.02;4.90;;;;;;;;;;4828165;29;20053;-84
2023/10/04 15:50:38;;;;;;;14.82;5.63;;;;;;;;;;4828203;29;20045;-87
2023/10/04 15:53:24;;;;;;;16.33;6.18;;;;;;;;;;4828443;29;20057;-85
2023/10/04 15:56:10;;;;;;;15.40;6.80;;;;;;;;;;4829608;29;20370;-83
2023/10/04 15:58:57;;;;;;;16.13;5.55;;;;;;;;;;4824040;29;20405;-84
2023/10/04 16:01:42;;;;;;;14.30;6.55;;;;;;;;;;4822763;29;20057;-83
2023/10/04 16:04:27;;;;;;;16.40;4.80;;;;;;;;;;4815519;29;20069;-84
2023/10/04 16:07:13;;;;;;;11.27;4.82;;;;;;;;;;4829988;29;20042;-85
2023/10/04 16:09:58;;;;;;;17.48;6.03;;;;;;;;;;4816087;29;20045;-84
2023/10/04 16:12:46;;;;;;;15.25;6.05;;;;;;;;;;4816715;29;20053;-84
2023/10/04 16:15:32;;;;;;;13.98;6.07;;;;;;;;;;4824073;29;20858;-83
2023/10/04 16:18:17;;;;;;;21.00;6.00;;;;;;;;;;4816152;29;20489;-85
2023/10/04 16:21:03;;;;;;;17.20;7.05;;;;;;;;;;4816972;29;20045;-84
2023/10/04 16:23:49;;;;;;;25.50;6.88;;;;;;;;;;4802960;29;20049;-83